หน้าหลัก
METAR-TAF:

METAR-TAF

ท่าอากาศยาน :

Mahikeng, แอฟริกาใต้

ละติจูด: 25-47S, ลองจิจูด: 025-32E, ความสูง: 1281 ม.

การสังเกตสภาพอากาศปัจจุบัน

รายงานได้ทำขึ้นเมื่อ 25 นาทีที่แล้ว ณ เวลา 04:00 UTC
ลม 5 นอตจากตะวันออกเฉียงเหนือ
อุณหภูมิ 3°C
ความชื้น 75%
ความกดอากาศ 1029 hPa
ทัศนวิสัย 10 กม. หรือมากกว่า
ไม่มีเมฆต่ำกว่า 1,500 ม. และไม่มีเมฆคิวมูโลนิมบัส

METAR: FAMM 130400Z 05005KT CAVOK 03/M01 Q1029 NOSIG

เวลา: 06:25 (04:25 UTC)

การพยากรณ์

รายงานได้ทำขึ้นเมื่อ 1 ชั่วโมงและ 25 นาทีที่แล้ว ณ เวลา 03:00 UTC
การพยากรณ์มีผลตั้งแต่วันที่ 13 ณ เวลา 04 UTC จนถึงวันที่ 13 ณ เวลา 15 UTC
ลม 3 นอตจากทิศทางซึ่งแปรผันได้
ทัศนวิสัย 10 กม. หรือมากกว่า
ไม่มีเมฆต่ำกว่า 1,500 ม. และไม่มีเมฆคิวมูโลนิมบัส

TAF: FAMM 130300Z 1304/1315 VRB03KT CAVOK TX20/1312Z TN05/1304Z

สังเกตการณ์สภาพอากาศและพยากรณ์อากาศของสนามบินมากกว่า 4000 แห่ง (รายงาน METAR และ TAF).

สถานีที่ดูได้จะแสดงไว้ด้วยจุดสีเหลืองและสีแดงบนแผนที่.

เลื่อนเมาส์ไปเหนือจุดเพื่อดูชื่อสถานี.

แล้วคลิกเพื่อดูสังเกตการณ์และการพยากรณ์สภาพอากาศ.

ในการเปลี่ยนแผนที่: คลิกที่ปุ่มสีเขียวที่มีกากบาทสีดำเพื่อซูมเข้า; ที่ปุ่มสีเขียวที่มีขีดเพื่อซูมออก; หรือที่ลูกศรสีเขียวเพื่อไปยังแผนที่ที่อยู่ติดกัน.


METAR-TAF: